• Join FlightAware (Why Join?)
  • Login
  • US Flag 
08:36AM EDT


 

Airport Tracker/Info


-or-


 

Live Flight TrackerFlight Track Log ✈ TSO594 ✈ 23-Apr-2013 ✈ MUVR / VRA - UUDD / DME

Flight Track Log - Related Links

Times and Time Zones

All times are in EDT time to prevent confusion due to time zone crossing. See the TSO594 flight status page for this flight to view local times or setup timezone preferences in your user account.

Time Position Orientation Groundspeed Altitude Reporting Facility
EDT Latitude Longitude Course Direction KTS MPH feet Rate Location/Type
04:28PM 23.0883 -81.0364 31° Northeast 422 486 10,300  Level Miami Center
04:29PM 23.1364 -80.9567 57° Northeast 344 396 11,200 1,020 Climbing Miami Center
04:30PM 25.7922 -79.6802 30° Northeast  Level Estimated
04:30PM 23.1911 -80.8656 57° Northeast 344 396 12,400  Level Miami Center
04:31PM 25.9176 -79.5982 30° Northeast  Level Estimated
04:31PM 23.2542 -80.7706 54° Northeast 361 415 14,300  Level Miami Center
04:32PM 26.0430 -79.5160 30° Northeast  Level Estimated
04:32PM 23.3131 -80.6750 56° Northeast 368 423 16,000  Level Miami Center
04:33PM 26.1683 -79.4336 31° Northeast  Level Estimated
04:33PM 23.3761 -80.5728 56° Northeast 383 441 17,700  Level Miami Center
04:34PM 26.2936 -79.3511 31° Northeast  Level Estimated
04:39PM 23.7970 -79.9040 56° Northeast 467 537 26,100  Level FlightAware
04:40PM 23.8590 -79.8040 56° Northeast 475 547 26,400 600 Climbing FlightAware
04:41PM 23.9150 -79.7130 56° Northeast 488 562 27,100 1,080 Climbing FlightAware
04:42PM 23.9740 -79.6190 56° Northeast 497 572 28,000 720 Climbing FlightAware
04:42PM 24.0110 -79.5600 56° Northeast 491 565 28,000  Level FlightAware
04:43PM 24.0840 -79.4790 45° Northeast 483 556 28,000  Level FlightAware
04:44PM 24.1570 -79.4140 39° Northeast 483 556 28,000  Level FlightAware
04:44PM 24.2240 -79.3540 39° Northeast 483 556 28,000  Level FlightAware
04:45PM 24.3020 -79.2840 39° Northeast 482 555 28,000 300 Level FlightAware
04:46PM 24.3710 -79.2220 39° Northeast 483 556 28,500 840 Climbing FlightAware
04:46PM 24.4510 -79.1500 39° Northeast 483 556 29,200 840 Climbing FlightAware
04:47PM 24.5350 -79.0740 39° Northeast 488 562 29,900 600 Climbing FlightAware
04:48PM 24.6300 -78.9880 39° Northeast 488 562 30,300 1,200 Climbing FlightAware
04:49PM 24.7150 -78.9110 39° Northeast 482 555 31,900 1,620 Climbing FlightAware
04:50PM 24.7940 -78.8400 39° Northeast 483 556 32,600 960 Climbing FlightAware
04:50PM 24.8620 -78.7780 40° Northeast 482 555 33,300 900 Climbing FlightAware
04:51PM 24.9400 -78.7070 40° Northeast 483 556 33,900 720 Climbing FlightAware
04:52PM 24.9970 -78.6560 39° Northeast 483 556 34,300 540 Climbing FlightAware
04:52PM 25.0660 -78.5920 40° Northeast 483 556 34,600 420 Climbing FlightAware
04:53PM 25.1560 -78.5100 40° Northeast 485 558 35,000 240 Climbing FlightAware
04:54PM 25.2170 -78.4540 40° Northeast 487 560 35,000  Level FlightAware
04:55PM 25.3010 -78.3770 40° Northeast 488 562 35,000  Level FlightAware
04:55PM 25.3760 -78.3090 39° Northeast 488 562 35,000  Level FlightAware
04:56PM 25.4490 -78.2410 40° Northeast 488 562 35,000  Level FlightAware
04:57PM 25.5270 -78.1690 40° Northeast 488 562 35,000  Level FlightAware
04:57PM 25.5920 -78.1090 40° Northeast 489 563 35,000  Level FlightAware
04:58PM 25.6880 -78.0210 40° Northeast 490 564 35,000  Level FlightAware
04:59PM 25.7690 -77.9460 40° Northeast 490 564 35,000  Level FlightAware
05:00PM 25.8240 -77.8950 40° Northeast 490 564 35,000  Level FlightAware
05:00PM 25.9130 -77.8120 40° Northeast 35,000  Level FlightAware
05:03PM 26.1400 -77.6000 40° Northeast 484 557 35,000  Level FlightAware
05:03PM 26.1930 -77.5500 40° Northeast 484 557 35,000  Level FlightAware
05:04PM 26.2660 -77.4820 40° Northeast 484 557 35,000  Level FlightAware
05:05PM 26.3250 -77.4270 40° Northeast 484 557 35,000  Level FlightAware
05:05PM 26.3830 -77.3720 40° Northeast 484 557 35,000  Level FlightAware
05:06PM 26.4410 -77.3180 40° Northeast 484 557 35,000  Level FlightAware
05:07PM 26.5000 -77.2630 40° Northeast 484 557 35,000  Level FlightAware
05:07PM 26.5730 -77.1950 40° Northeast 484 557 35,000  Level FlightAware
05:08PM 26.6310 -77.1400 40° Northeast 484 557 35,000  Level FlightAware
05:09PM 26.6890 -77.0850 40° Northeast 484 557 35,000  Level FlightAware
05:09PM 26.7470 -77.0300 40° Northeast 484 557 35,000  Level FlightAware
05:10PM 26.8060 -76.9760 39° Northeast 484 557 35,000  Level FlightAware
05:11PM 26.8790 -76.9070 40° Northeast 484 557 35,000  Level FlightAware
05:12PM 26.9370 -76.8520 40° Northeast 484 557 35,000  Level FlightAware
05:12PM 26.9950 -76.7970 40° Northeast 484 557 35,000 -1,200 Level FlightAware
05:13PM 27.2539 -76.5503 40° Northeast 473 544 33,000 -960 Descending Miami Center
05:14PM 27.3561 -76.4492 41° Northeast 478 550 33,000  Level Miami Center
05:15PM 27.4558 -76.3436 43° Northeast 483 556 33,000  Level Miami Center
05:16PM 27.5619 -76.2469 39° Northeast 483 556 33,000  Level Miami Center
05:17PM 27.6619 -76.1433 43° Northeast 483 556 33,000  Level Miami Center
05:18PM 27.7700 -76.0511 37° Northeast 483 556 33,000  Level Miami Center
05:19PM 27.8333 -75.9833 32° Northeast 485 558 33,000  Level New York Oceanic (ODAPS)
05:19PM 27.8800 -75.9633 32° Northeast 483 556 33,000  Level Miami Center
05:20PM 27.9881 -75.8708 37° Northeast 478 550 33,000  Level Miami Center
05:21PM 28.1022 -75.7872 33° Northeast 478 550 33,000  Level Miami Center
05:23PM 28.2352 -75.6908 33° Northeast  Level FlightAware Approximate
05:28PM 28.8667 -75.2333 33° Northeast 493 567 33,000  Level New York Oceanic (ODAPS)
05:30PM 29.0547 -75.0898 33° Northeast  Level FlightAware Approximate
05:31PM 29.1716 -75.0032 33° Northeast  Level FlightAware Approximate
05:32PM 29.2884 -74.9163 33° Northeast  Level FlightAware Approximate
05:33PM 29.4052 -74.8293 33° Northeast  Level FlightAware Approximate
05:34PM 29.5548 -74.7253 33° Northeast 493 567 33,000  Level FlightAware Transoceanic
05:35PM 29.6693 -74.6399 33° Northeast 493 567 33,000  Level FlightAware Transoceanic
05:36PM 29.7838 -74.5544 33° Northeast 493 567 33,000  Level FlightAware Transoceanic
05:37PM 29.8982 -74.4686 33° Northeast 493 567 33,000  Level FlightAware Transoceanic
05:38PM 30.0125 -74.3827 33° Northeast 493 567 33,000  Level FlightAware Transoceanic
05:39PM 30.1268 -74.2965 33° Northeast 493 567 33,000  Level FlightAware Transoceanic
05:40PM 30.2410 -74.2102 33° Northeast 493 567 33,000  Level FlightAware Transoceanic
05:41PM 30.3552 -74.1237 33° Northeast 493 567 33,000  Level FlightAware Transoceanic
05:42PM 30.4693 -74.0369 33° Northeast 493 567 33,000  Level FlightAware Transoceanic
05:42PM 30.5000 -74.0167 35° Northeast 516 594 33,000  Level New York Oceanic (ODAPS)
05:43PM 30.5833 -73.9500 33° Northeast 493 567 33,000  Level FlightAware Transoceanic
05:43PM 30.5833 -73.9500 33° Northeast 518 596 33,000  Level New York Oceanic (ODAPS)
05:44PM 30.7065 -73.8574 33° Northeast 493 567 33,000  Level FlightAware Transoceanic
05:45PM 30.8296 -73.7645 33° Northeast 493 567 33,000  Level FlightAware Transoceanic
05:46PM 30.9526 -73.6713 33° Northeast 493 567 33,000  Level FlightAware Transoceanic
05:47PM 31.0756 -73.5779 33° Northeast 493 567 33,000  Level FlightAware Transoceanic
05:48PM 31.1985 -73.4843 33° Northeast 516 594 33,000  Level FlightAware Transoceanic
05:49PM 31.3213 -73.3905 33° Northeast 518 596 33,000  Level FlightAware Transoceanic
05:50PM 31.4440 -73.2964 33° Northeast 518 596 33,000  Level FlightAware Transoceanic
05:51PM 31.5667 -73.2020 33° Northeast 518 596 33,000  Level FlightAware Transoceanic
05:52PM 31.6893 -73.1075 33° Northeast 518 596 33,000  Level FlightAware Transoceanic
05:53PM 31.8119 -73.0126 33° Northeast 518 596 33,000  Level FlightAware Transoceanic
05:54PM 31.9343 -72.9175 33° Northeast 518 596 33,000  Level FlightAware Transoceanic
05:55PM 32.0567 -72.8222 33° Northeast 518 596 33,000  Level FlightAware Transoceanic
05:56PM 32.1791 -72.7265 34° Northeast 518 596 33,000  Level FlightAware Transoceanic
05:56PM 32.2333 -72.6833 34° Northeast 555 639 33,000  Level New York Oceanic (ODAPS)
05:57PM 32.3013 -72.6307 34° Northeast 518 596 33,000  Level FlightAware Transoceanic
05:58PM 32.4235 -72.5346 34° Northeast 518 596 33,000  Level FlightAware Transoceanic
05:59PM 32.5456 -72.4382 34° Northeast 518 596 33,000  Level FlightAware Transoceanic
06:00PM 32.6677 -72.3415 34° Northeast 518 596 33,000  Level FlightAware Transoceanic
06:01PM 32.7896 -72.2446 34° Northeast 518 596 33,000  Level FlightAware Transoceanic
06:02PM 33.0333 -72.0500 36° Northeast 555 639 33,000  Level FlightAware Transoceanic
06:03PM 33.1549 -71.9430 36° Northeast 555 639 33,000  Level FlightAware Transoceanic
06:04PM 33.2763 -71.8357 37° Northeast 555 639 33,000  Level FlightAware Transoceanic
06:04PM 33.0333 -72.0500 36° Northeast 546 628 33,000  Level New York Oceanic (ODAPS)
06:05PM 33.3976 -71.7281 37° Northeast 555 639 33,000  Level FlightAware Transoceanic
06:06PM 33.5188 -71.6203 37° Northeast 555 639 33,000  Level FlightAware Transoceanic
06:07PM 33.6400 -71.5121 37° Northeast 555 639 33,000  Level FlightAware Transoceanic
06:08PM 33.7610 -71.4036 37° Northeast 555 639 33,000  Level FlightAware Transoceanic
06:09PM 33.8820 -71.2948 37° Northeast 555 639 33,000  Level FlightAware Transoceanic
06:10PM 34.0028 -71.1857 37° Northeast 546 628 33,000  Level FlightAware Transoceanic
06:10PM 33.9833 -71.2000 37° Northeast 551 634 33,000  Level New York Oceanic (ODAPS)
06:11PM 34.1236 -71.0762 37° Northeast 546 628 33,000  Level FlightAware Transoceanic
06:12PM 34.2443 -70.9665 37° Northeast 546 628 33,000  Level FlightAware Transoceanic
06:13PM 34.3648 -70.8565 37° Northeast 546 628 33,000  Level FlightAware Transoceanic
06:14PM 34.4853 -70.7461 37° Northeast 546 628 33,000  Level FlightAware Transoceanic
06:15PM 34.6057 -70.6354 37° Northeast 546 628 33,000  Level FlightAware Transoceanic
06:16PM 34.7095 -70.5368 37° Northeast 551 634 33,000  Level FlightAware Transoceanic
06:17PM 34.8302 -70.4251 37° Northeast 551 634 33,000  Level FlightAware Transoceanic
06:18PM 34.9507 -70.3131 37° Northeast 551 634 33,000  Level FlightAware Transoceanic
06:19PM 35.0712 -70.2008 37° Northeast 551 634 33,000  Level FlightAware Transoceanic
06:20PM 35.1916 -70.0882 37° Northeast 551 634 33,000  Level FlightAware Transoceanic
06:21PM 35.3118 -69.9752 38° Northeast 551 634 33,000  Level FlightAware Transoceanic
06:22PM 35.4320 -69.8618 38° Northeast 551 634 33,000  Level FlightAware Transoceanic
06:23PM 35.5520 -69.7482 38° Northeast 551 634 33,000  Level FlightAware Transoceanic
06:24PM 35.6720 -69.6342 38° Northeast 551 634 33,000  Level FlightAware Transoceanic
06:24PM 35.6667 -69.6333 38° Northeast 547 629 33,000  Level New York Oceanic (ODAPS)
06:25PM 35.7918 -69.5199 38° Northeast 551 634 33,000  Level FlightAware Transoceanic
06:26PM 35.9115 -69.4052 38° Northeast 551 634 33,000  Level FlightAware Transoceanic
06:27PM 36.0312 -69.2901 38° Northeast 551 634 33,000  Level FlightAware Transoceanic
06:28PM 36.1507 -69.1747 38° Northeast 551 634 33,000  Level FlightAware Transoceanic
06:29PM 36.2701 -69.0590 38° Northeast 551 634 33,000  Level FlightAware Transoceanic
06:30PM 36.3853 -68.9423 38° Northeast 547 629 33,000  Level FlightAware Transoceanic
06:31PM 36.5047 -68.8259 38° Northeast 547 629 33,000  Level FlightAware Transoceanic
06:32PM 36.6240 -68.7091 38° Northeast 547 629 33,000  Level FlightAware Transoceanic
06:33PM 36.7431 -68.5920 38° Northeast 547 629 33,000  Level FlightAware Transoceanic
06:34PM 36.8621 -68.4745 38° Northeast 547 629 33,000  Level FlightAware Transoceanic
06:35PM 36.9811 -68.3566 38° Northeast 547 629 33,000  Level FlightAware Transoceanic
06:36PM 37.0999 -68.2384 38° Northeast 547 629 33,000  Level FlightAware Transoceanic
06:37PM 37.2186 -68.1198 39° Northeast 547 629 33,000  Level FlightAware Transoceanic
06:38PM 37.3371 -68.0008 39° Northeast 547 629 33,000  Level FlightAware Transoceanic
06:38PM 37.3333 -68.0167 39° Northeast 543 625 33,000  Level New York Oceanic (ODAPS)
06:39PM 37.4556 -67.8814 39° Northeast 547 629 33,000  Level FlightAware Transoceanic
06:40PM 37.5739 -67.7617 39° Northeast 547 629 33,000  Level FlightAware Transoceanic
06:41PM 37.6921 -67.6416 39° Northeast 547 629 33,000  Level FlightAware Transoceanic
06:42PM 37.8102 -67.5211 39° Northeast 547 629 33,000  Level FlightAware Transoceanic
06:43PM 37.9282 -67.4002 39° Northeast 547 629 33,000  Level FlightAware Transoceanic
06:44PM 38.0443 -67.2862 39° Northeast 543 625 33,000  Level FlightAware Transoceanic
06:45PM 38.1624 -67.1631 39° Northeast 543 625 33,000  Level FlightAware Transoceanic
06:46PM 38.2803 -67.0396 39° Northeast 543 625 33,000  Level FlightAware Transoceanic
06:47PM 38.3981 -66.9157 40° Northeast 543 625 33,000  Level FlightAware Transoceanic
06:48PM 38.5158 -66.7914 40° Northeast 543 625 33,000  Level FlightAware Transoceanic
06:49PM 38.6333 -66.6667 46° Northeast 543 625 33,000  Level FlightAware Transoceanic
06:49PM 38.6333 -66.6667 46° Northeast 535 616 33,000  Level New York Oceanic (ODAPS)
06:50PM 38.7379 -66.5267 46° Northeast 543 625 33,000  Level FlightAware Transoceanic
06:51PM 38.8424 -66.3864 46° Northeast 543 625 33,000  Level FlightAware Transoceanic
06:51PM 38.9000 -66.3167 46° Northeast 535 616 33,000  Level New York Oceanic (ODAPS)
06:52PM 38.9467 -66.2457 46° Northeast 543 625 33,000  Level FlightAware Transoceanic
06:53PM 39.0508 -66.1045 47° Northeast 543 625 33,000  Level FlightAware Transoceanic
06:54PM 39.1547 -65.9629 47° Northeast 543 625 33,000  Level FlightAware Transoceanic
06:55PM 39.2421 -65.8434 47° Northeast 535 616 33,000  Level FlightAware Transoceanic
06:56PM 39.3430 -65.7048 47° Northeast 535 616 33,000  Level FlightAware Transoceanic
06:57PM 39.4437 -65.5658 47° Northeast 535 616 33,000  Level FlightAware Transoceanic
06:58PM 39.5128 -65.4768 47° Northeast 535 616 33,000  Level FlightAware Transoceanic
06:59PM 39.6143 -65.3354 47° Northeast 535 616 33,000  Level FlightAware Transoceanic
07:00PM 39.7157 -65.1936 47° Northeast 535 616 33,000  Level FlightAware Transoceanic
07:01PM 39.8169 -65.0513 47° Northeast 535 616 33,000  Level FlightAware Transoceanic
07:02PM 39.9179 -64.9087 47° Northeast 535 616 33,000  Level FlightAware Transoceanic
07:03PM 40.0187 -64.7656 47° Northeast 535 616 33,000  Level FlightAware Transoceanic
07:04PM 40.1194 -64.6221 48° Northeast 535 616 33,000  Level FlightAware Transoceanic
07:05PM 40.2199 -64.4782 48° Northeast 535 616 33,000  Level FlightAware Transoceanic
07:05PM 40.3000 -64.3667 48° Northeast 533 613 33,000  Level New York Oceanic (ODAPS)
07:06PM 40.3202 -64.3338 48° Northeast 535 616 33,000  Level FlightAware Transoceanic
07:07PM 40.4203 -64.1890 48° Northeast 535 616 33,000  Level FlightAware Transoceanic
07:08PM 40.5203 -64.0438 48° Northeast 535 616 33,000  Level FlightAware Transoceanic
07:09PM 40.6201 -63.8981 48° Northeast 535 616 33,000  Level FlightAware Transoceanic
07:10PM 40.7197 -63.7520 48° Northeast 535 616 33,000  Level FlightAware Transoceanic
07:11PM 40.8191 -63.6055 48° Northeast 535 616 33,000  Level FlightAware Transoceanic
07:12PM 40.9722 -63.3810 48° Northeast 533 613 33,000  Level FlightAware Transoceanic
07:13PM 41.0676 -63.2385 48° Northeast 533 613 33,000  Level FlightAware Transoceanic
07:14PM 41.1627 -63.0956 49° Northeast 533 613 33,000  Level FlightAware Transoceanic
07:15PM 41.2577 -62.9524 49° Northeast 533 613 33,000  Level FlightAware Transoceanic
07:16PM 41.3525 -62.8087 49° Northeast 533 613 33,000  Level FlightAware Transoceanic
07:17PM 41.4471 -62.6646 49° Northeast 533 613 33,000  Level FlightAware Transoceanic
07:18PM 41.5416 -62.5200 49° Northeast 533 613 33,000  Level FlightAware Transoceanic
07:19PM 41.6359 -62.3751 49° Northeast 533 613 33,000  Level FlightAware Transoceanic
07:19PM 41.6500 -62.3500 49° Northeast 531 611 33,000  Level New York Oceanic (ODAPS)
07:20PM 41.7299 -62.2297 49° Northeast 533 613 33,000  Level FlightAware Transoceanic
07:21PM 41.8238 -62.0839 49° Northeast 533 613 33,000  Level FlightAware Transoceanic
07:22PM 41.9176 -61.9376 49° Northeast 533 613 33,000  Level FlightAware Transoceanic
07:23PM 42.0111 -61.7910 49° Northeast 533 613 33,000  Level FlightAware Transoceanic
07:24PM 42.1044 -61.6439 50° Northeast 533 613 33,000  Level FlightAware Transoceanic
07:25PM 42.2011 -61.4900 50° Northeast 531 611 33,000  Level FlightAware Transoceanic
07:26PM 42.2923 -61.3452 50° Northeast 531 611 33,000  Level FlightAware Transoceanic
07:26PM 42.3000 -61.2833 40° Northeast 530 610 33,000  Level Moncton Center
07:27PM 42.3833 -61.2000 39° Northeast 531 611 33,000 480 Level FlightAware Transoceanic
07:27PM 42.4333 -61.1000 45° Northeast 520 598 33,600  Climbing Gander Center
07:28PM 42.4927 -61.0779 40° Northeast 531 611 33,000 900 Descending FlightAware Transoceanic
07:28PM 42.5333 -60.9833 41° Northeast 530 610 34,500  Climbing Gander Center
07:29PM 42.6020 -60.9554 40° Northeast 531 611 33,000 480 Descending FlightAware Transoceanic
07:29PM 42.6500 -60.8833 32° Northeast 530 610 35,000  Climbing Gander Center
07:30PM 42.7111 -60.8325 40° Northeast 531 611 33,000  Descending FlightAware Transoceanic
07:30PM 42.7667 -60.7333 43° Northeast 530 610 35,000  Climbing Gander Center
07:31PM 42.8201 -60.7091 40° Northeast 531 611 33,000  Descending FlightAware Transoceanic
07:31PM 42.8500 -60.6333 41° Northeast 530 610 35,000 1,440 Climbing Moncton Center
07:32PM 42.9667 -60.5000 40° Northeast 530 610 35,000  Level Moncton Center
07:33PM 43.0833 -60.3667 40° Northeast 530 610 35,000  Level Moncton Center
07:34PM 43.1833 -60.2500 40° Northeast 530 610 35,000 240 Level Moncton Center
07:40PM 43.8460 -59.5210 40° Northeast 529 609 36,800 240 Climbing FlightAware
07:40PM 43.9090 -59.4460 41° Northeast 529 609 36,800 120 Level FlightAware
07:41PM 44.0040 -59.3310 41° Northeast 526 605 37,000 120 Climbing FlightAware
07:42PM 44.0770 -59.2430 41° Northeast 525 604 37,000  Level FlightAware
07:42PM 44.1640 -59.1390 41° Northeast 524 603 37,000  Level FlightAware
07:43PM 44.2370 -59.0510 41° Northeast 523 602 37,000  Level FlightAware
07:44PM 44.3190 -58.9520 41° Northeast 522 601 37,000  Level FlightAware
07:44PM 44.3910 -58.8640 41° Northeast 522 601 37,000  Level FlightAware
07:45PM 44.4640 -58.7760 41° Northeast 520 598 37,000  Level FlightAware
07:46PM 44.5440 -58.6770 41° Northeast 516 594 37,000  Level FlightAware
07:47PM 44.6150 -58.5900 41° Northeast 514 592 37,000  Level FlightAware
07:47PM 44.6990 -58.4870 41° Northeast 512 589 37,000  Level FlightAware
07:48PM 44.7690 -58.4000 41° Northeast 512 589 37,000  Level FlightAware
07:49PM 44.8400 -58.3120 41° Northeast 512 589 37,000  Level FlightAware
07:49PM 44.9180 -58.2150 41° Northeast 513 590 37,000  Level FlightAware
07:50PM 44.9870 -58.1280 42° Northeast 512 589 37,000  Level FlightAware
07:51PM 45.0610 -58.0360 41° Northeast 512 589 37,000  Level FlightAware
07:51PM 45.1400 -57.9360 42° Northeast 512 589 37,000  Level FlightAware
07:52PM 45.2110 -57.8460 42° Northeast 511 588 37,000  Level FlightAware
07:53PM 45.2820 -57.7560 42° Northeast 509 586 37,000  Level FlightAware
07:54PM 45.3580 -57.6600 42° Northeast 508 585 37,000  Level FlightAware
07:54PM 45.4270 -57.5710 42° Northeast 508 585 37,000  Level FlightAware
07:55PM 45.5080 -57.4670 42° Northeast 506 582 37,000  Level FlightAware
07:56PM 45.5740 -57.3820 42° Northeast 506 582 37,000  Level FlightAware
07:56PM 45.6460 -57.2890 42° Northeast 506 582 37,000  Level FlightAware
07:57PM 45.7170 -57.1980 42° Northeast 506 582 37,000  Level FlightAware
07:58PM 45.7760 -57.1210 42° Northeast 506 582 37,000  Level FlightAware
07:58PM 45.8730 -56.9950 42° Northeast 508 585 37,000  Level FlightAware
07:59PM 45.9360 -56.9130 42° Northeast 508 585 37,000  Level FlightAware
08:00PM 45.9990 -56.8280 43° Northeast 510 587 37,000  Level FlightAware
08:01PM 46.1060 -56.6890 42° Northeast 510 587 37,000  Level FlightAware
08:01PM 46.1840 -56.5840 43° Northeast 508 585 37,000  Level FlightAware
08:02PM 46.2450 -56.5040 42° Northeast 508 585 37,000  Level FlightAware
08:03PM 46.3290 -56.3900 43° Northeast 508 585 37,000  Level FlightAware
08:04PM 46.3980 -56.2970 43° Northeast 508 585 37,000  Level FlightAware
08:04PM 46.4780 -56.1930 42° Northeast 505 581 37,000  Level FlightAware
08:05PM 46.5460 -56.1070 41° Northeast 502 578 37,000  Level FlightAware
08:06PM 46.6260 -56.0090 40° Northeast 501 577 37,000  Level FlightAware
08:06PM 46.6970 -55.9230 40° Northeast 501 577 37,000  Level FlightAware
08:07PM 46.7690 -55.8370 39° Northeast 501 577 37,000  Level FlightAware
08:08PM 46.8490 -55.7380 40° Northeast 501 577 37,000  Level FlightAware
08:08PM 46.9210 -55.6500 40° Northeast 501 577 37,000  Level FlightAware
08:09PM 46.9870 -55.5680 40° Northeast 500 575 37,000  Level FlightAware
08:10PM 47.0820 -55.4490 40° Northeast 495 570 37,000 -300 Level FlightAware
08:11PM 47.1500 -55.3660 40° Northeast 495 570 36,600 -300 Descending FlightAware
08:11PM 47.2170 -55.2790 41° Northeast 495 570 36,600 -480 Level FlightAware
08:12PM 47.3160 -55.1570 40° Northeast 500 575 35,900 -780 Descending FlightAware
08:13PM 47.3860 -55.0680 41° Northeast 506 582 35,500 -660 Descending FlightAware
08:14PM 47.4630 -54.9710 40° Northeast 508 585 35,000 -720 Descending FlightAware
08:14PM 47.5340 -54.8800 41° Northeast 504 580 34,500 -720 Descending FlightAware
08:15PM 47.6040 -54.7900 41° Northeast 506 582 34,100 -660 Descending FlightAware
08:16PM 47.6880 -54.6840 40° Northeast 508 585 33,600 -720 Descending FlightAware
08:16PM 47.7640 -54.5840 41° Northeast 508 585 33,100 -480 Descending FlightAware
08:17PM 47.8350 -54.4930 41° Northeast 501 577 33,000 -120 Descending FlightAware
08:18PM 47.9040 -54.4040 41° Northeast 502 578 33,000  Level FlightAware
08:18PM 47.9750 -54.3110 41° Northeast 502 578 33,000  Level FlightAware
08:19PM 48.0540 -54.2070 41° Northeast 503 579 33,000  Level FlightAware
08:20PM 48.1320 -54.1050 41° Northeast 499 574 33,000  Level FlightAware
08:21PM 48.2020 -54.0130 41° Northeast 500 575 33,000  Level FlightAware
08:21PM 48.2660 -53.9280 41° Northeast 501 577 33,000  Level FlightAware
08:22PM 48.3510 -53.8150 41° Northeast 502 578 33,000  Level FlightAware
08:23PM 48.4470 -53.6860 42° Northeast 502 578 33,000  Level FlightAware
08:24PM 48.5180 -53.5910 42° Northeast 501 577 33,000  Level FlightAware
08:24PM 48.5970 -53.4850 42° Northeast 499 574 33,000  Level FlightAware
08:25PM 48.6570 -53.4040 42° Northeast 502 578 33,000  Level FlightAware
08:26PM 48.7710 -53.2490 42° Northeast 496 571 33,000  Level FlightAware
08:27PM 48.8610 -53.1270 42° Northeast 495 570 33,000  Level FlightAware
08:28PM 48.9310 -53.0300 42° Northeast 495 570 33,000  Level FlightAware
08:28PM 49.0070 -52.9240 42° Northeast 494 568 33,000  Level FlightAware
08:29PM 49.0750 -52.8300 42° Northeast 493 567 33,000  Level FlightAware
08:30PM 49.1430 -52.7370 42° Northeast 490 564 33,000  Level FlightAware
08:30PM 49.2140 -52.6370 43° Northeast 489 563 33,000  Level FlightAware
08:31PM 49.2660 -52.5650 42° Northeast 489 563 33,000  Level FlightAware
08:32PM 49.3750 -52.4100 43° Northeast 487 560 33,000  Level FlightAware
08:33PM 49.4480 -52.3070 43° Northeast 487 560 33,000  Level FlightAware
08:33PM 49.5010 -52.2340 42° Northeast 487 560 33,000  Level FlightAware
08:35PM 49.6480 -52.0220 43° Northeast 484 557 33,000  Level FlightAware
08:36PM 49.7410 -51.8900 43° Northeast 483 556 33,000  Level FlightAware
08:37PM 49.8190 -51.7760 43° Northeast 483 556 33,000  Level FlightAware
08:37PM 49.8840 -51.6810 43° Northeast 483 556 33,000  Level FlightAware
08:38PM 49.9380 -51.6030 43° Northeast 483 556 33,000  Level FlightAware
08:39PM 50.0300 -51.4680 43° Northeast 483 556 33,000  Level FlightAware
08:39PM 50.0860 -51.3870 43° Northeast 483 556 33,000  Level FlightAware
08:40PM 50.1550 -51.2860 43° Northeast 483 556 33,000  Level FlightAware
08:41PM 50.2110 -51.2050 43° Northeast 483 556 33,000  Level FlightAware
08:42PM 50.2670 -51.1240 43° Northeast 483 556 33,000  Level FlightAware
08:42PM 50.3220 -51.0430 43° Northeast 483 556 33,000  Level FlightAware
08:43PM 50.3780 -50.9620 43° Northeast 483 556 33,000  Level FlightAware
08:44PM 50.4330 -50.8810 43° Northeast 483 556 33,000  Level FlightAware
08:44PM 50.5030 -50.7790 43° Northeast 483 556 33,000  Level FlightAware
08:45PM 50.5580 -50.6970 43° Northeast 483 556 33,000  Level FlightAware
08:46PM 50.6140 -50.6160 43° Northeast 483 556 33,000  Level FlightAware
08:46PM 50.6690 -50.5340 43° Northeast 483 556 33,000  Level FlightAware
08:47PM 50.7390 -50.4320 43° Northeast 483 556 33,000  Level FlightAware
08:48PM 50.7940 -50.3500 43° Northeast 483 556 33,000  Level FlightAware
08:48PM 50.9167 -50.0333 43° Northeast 470 541 33,000  Level Gander Center
08:49PM 50.9833 -49.9333 43° Northeast 470 541 33,000  Level Gander Center
08:50PM 51.0667 -49.7833 48° Northeast 480 552 33,000  Level Gander Center
08:51PM 51.1500 -49.6000 54° Northeast 480 552 33,000  Level Gander Center
08:54PM 51.2587 -49.3849 51° Northeast  Level FlightAware Approximate
09:01PM 51.8493 -48.1485 53° Northeast  Level FlightAware Approximate
09:02PM 51.9314 -47.9677 54° Northeast  Level FlightAware Approximate
09:03PM 52.0131 -47.7862 54° Northeast  Level FlightAware Approximate
09:04PM 52.0944 -47.6038 54° Northeast  Level FlightAware Approximate
09:05PM 52.1749 -47.4203 54° Northeast  Level FlightAware Approximate
09:06PM 52.2552 -47.2360 55° Northeast  Level FlightAware Approximate
09:07PM 52.3352 -47.0512 55° Northeast  Level FlightAware Approximate
09:08PM 52.4149 -46.8656 55° Northeast  Level FlightAware Approximate
09:09PM 52.4943 -46.6794 55° Northeast  Level FlightAware Approximate
09:10PM 52.5734 -46.4925 55° Northeast  Level FlightAware Approximate
09:11PM 52.6522 -46.3050 55° Northeast  Level FlightAware Approximate
09:12PM 52.7307 -46.1167 55° Northeast  Level FlightAware Approximate
09:13PM 52.8089 -45.9278 56° Northeast  Level FlightAware Approximate
09:14PM 52.8868 -45.7382 56° Northeast  Level FlightAware Approximate
09:15PM 52.9644 -45.5479 56° Northeast  Level FlightAware Approximate
09:16PM 53.0415 -45.3567 56° Northeast  Level FlightAware Approximate
09:17PM 53.1184 -45.1649 56° Northeast  Level FlightAware Approximate
09:18PM 53.1949 -44.9724 56° Northeast  Level FlightAware Approximate
09:19PM 53.2711 -44.7792 57° Northeast  Level FlightAware Approximate
09:20PM 53.3470 -44.5853 57° Northeast  Level FlightAware Approximate
09:21PM 53.4226 -44.3908 57° Northeast  Level FlightAware Approximate
09:22PM 53.4980 -44.1957 57° Northeast  Level FlightAware Approximate
09:23PM 53.5737 -44.0005 57° Northeast  Level FlightAware Approximate
09:24PM 53.6490 -43.8046 57° Northeast  Level FlightAware Approximate
09:25PM 53.7240 -43.6080 57° Northeast  Level FlightAware Approximate
09:26PM 53.7987 -43.4107 57° Northeast  Level FlightAware Approximate
09:27PM 53.8730 -43.2127 57° Northeast  Level FlightAware Approximate
09:28PM 53.9471 -43.0140 58° Northeast  Level FlightAware Approximate
09:29PM 54.0208 -42.8146 58° Northeast  Level FlightAware Approximate
09:30PM 54.0942 -42.6145 58° Northeast  Level FlightAware Approximate
09:31PM 54.1672 -42.4136 58° Northeast  Level FlightAware Approximate
09:32PM 54.2399 -42.2121 58° Northeast  Level FlightAware Approximate
09:33PM 54.3123 -42.0099 58° Northeast  Level FlightAware Approximate
09:34PM 54.3843 -41.8069 59° Northeast  Level FlightAware Approximate
09:35PM 54.4560 -41.6033 59° Northeast  Level FlightAware Approximate
09:36PM 54.5274 -41.3989 59° Northeast  Level FlightAware Approximate
09:37PM 54.5984 -41.1938 59° Northeast  Level FlightAware Approximate
09:38PM 54.6690 -40.9880 59° Northeast  Level FlightAware Approximate
09:39PM 54.7393 -40.7815 59° Northeast  Level FlightAware Approximate
09:40PM 54.8093 -40.5742 60° Northeast  Level FlightAware Approximate
09:41PM 54.8789 -40.3663 60° Northeast  Level FlightAware Approximate
09:42PM 54.9481 -40.1576 60° Northeast  Level FlightAware Approximate
09:43PM 55.0184 -39.9498 57° Northeast  Level FlightAware Approximate
09:44PM 55.0929 -39.7459 57° Northeast  Level FlightAware Approximate
09:45PM 55.1670 -39.5412 58° Northeast  Level FlightAware Approximate
09:46PM 55.2407 -39.3358 58° Northeast  Level FlightAware Approximate
09:47PM 55.3141 -39.1296 58° Northeast  Level FlightAware Approximate
09:48PM 55.3872 -38.9226 58° Northeast  Level FlightAware Approximate
09:49PM 55.4599 -38.7149 58° Northeast  Level FlightAware Approximate
09:50PM 55.5322 -38.5065 58° Northeast  Level FlightAware Approximate
09:51PM 55.6043 -38.2972 59° Northeast  Level FlightAware Approximate
09:52PM 55.6759 -38.0872 59° Northeast  Level FlightAware Approximate
09:53PM 55.7472 -37.8764 59° Northeast  Level FlightAware Approximate
09:54PM 55.8181 -37.6649 59° Northeast  Level FlightAware Approximate
09:55PM 55.8886 -37.4526 59° Northeast  Level FlightAware Approximate
09:56PM 55.9588 -37.2395 59° Northeast  Level FlightAware Approximate
09:57PM 56.0286 -37.0256 60° Northeast  Level FlightAware Approximate
09:58PM 56.0981 -36.8110 60° Northeast  Level FlightAware Approximate
09:59PM 56.1672 -36.5956 60° Northeast  Level FlightAware Approximate
10:00PM 56.2359 -36.3794 60° Northeast  Level FlightAware Approximate
10:01PM 56.3042 -36.1624 60° Northeast  Level FlightAware Approximate
10:02PM 56.3721 -35.9447 61° Northeast  Level FlightAware Approximate
10:03PM 56.4397 -35.7262 61° Northeast  Level FlightAware Approximate
10:04PM 56.5069 -35.5069 61° Northeast  Level FlightAware Approximate
10:05PM 56.5736 -35.2868 61° Northeast  Level FlightAware Approximate
10:06PM 56.6400 -35.0660 61° Northeast  Level FlightAware Approximate
10:07PM 56.7060 -34.8444 61° Northeast  Level FlightAware Approximate
10:08PM 56.7716 -34.6220 62° Northeast  Level FlightAware Approximate
10:09PM 56.8368 -34.3988 62° Northeast  Level FlightAware Approximate
10:10PM 56.9017 -34.1749 62° Northeast  Level FlightAware Approximate
10:11PM 56.9661 -33.9502 62° Northeast  Level FlightAware Approximate
10:12PM 57.0301 -33.7247 62° Northeast  Level FlightAware Approximate
10:13PM 57.0937 -33.4984 63° Northeast  Level FlightAware Approximate
10:14PM 57.1569 -33.2713 63° Northeast  Level FlightAware Approximate
10:15PM 57.2196 -33.0435 63° Northeast  Level FlightAware Approximate
10:16PM 57.2820 -32.8149 63° Northeast  Level FlightAware Approximate
10:17PM 57.3439 -32.5855 63° Northeast  Level FlightAware Approximate
10:18PM 57.4055 -32.3554 64° Northeast  Level FlightAware Approximate
10:19PM 57.4666 -32.1245 64° Northeast  Level FlightAware Approximate
10:20PM 57.5273 -31.8928 64° Northeast  Level FlightAware Approximate
10:21PM 57.5875 -31.6604 64° Northeast  Level FlightAware Approximate
10:22PM 57.6474 -31.4271 64° Northeast  Level FlightAware Approximate
10:23PM 57.7068 -31.1931 65° Northeast  Level FlightAware Approximate
10:24PM 57.7657 -30.9584 65° Northeast  Level FlightAware Approximate
10:25PM 57.8242 -30.7229 65° Northeast  Level FlightAware Approximate
10:26PM 57.8823 -30.4866 65° Northeast  Level FlightAware Approximate
10:27PM 57.9400 -30.2495 65° Northeast  Level FlightAware Approximate
10:28PM 57.9972 -30.0117 66° East  Level FlightAware Approximate
10:29PM 58.0551 -29.7742 65° Northeast  Level FlightAware Approximate
10:30PM 58.1127 -29.5359 65° Northeast  Level FlightAware Approximate
10:31PM 58.1698 -29.2969 66° East  Level FlightAware Approximate
10:32PM 58.2264 -29.0570 66° East  Level FlightAware Approximate
10:33PM 58.2826 -28.8165 66° East  Level FlightAware Approximate
10:34PM 58.3383 -28.5751 66° East  Level FlightAware Approximate
10:35PM 58.3936 -28.3330 66° East  Level FlightAware Approximate
10:36PM 58.4485 -28.0902 67° East  Level FlightAware Approximate
10:37PM 58.5028 -27.8465 67° East  Level FlightAware Approximate
10:38PM 58.5568 -27.6022 67° East  Level FlightAware Approximate
10:39PM 58.6102 -27.3570 67° East  Level FlightAware Approximate
10:40PM 58.6643 -27.1120 67° East  Level FlightAware Approximate
10:41PM 58.7187 -26.8670 67° East  Level FlightAware Approximate
10:42PM 58.7727 -26.6211 67° East  Level FlightAware Approximate
10:43PM 58.8262 -26.3746 67° East  Level FlightAware Approximate
10:44PM 58.8792 -26.1272 67° East  Level FlightAware Approximate
10:45PM 58.9318 -25.8791 68° East  Level FlightAware Approximate
10:46PM 58.9838 -25.6302 68° East  Level FlightAware Approximate
10:47PM 59.0354 -25.3806 68° East  Level FlightAware Approximate
10:48PM 59.0866 -25.1303 68° East  Level FlightAware Approximate
10:49PM 59.1372 -24.8792 68° East  Level FlightAware Approximate
10:50PM 59.1874 -24.6273 69° East  Level FlightAware Approximate
10:51PM 59.2370 -24.3748 69° East  Level FlightAware Approximate
10:52PM 59.2862 -24.1214 69° East  Level FlightAware Approximate
10:53PM 59.3349 -23.8674 69° East  Level FlightAware Approximate
10:54PM 59.3830 -23.6126 70° East  Level FlightAware Approximate
10:55PM 59.4307 -23.3571 70° East  Level FlightAware Approximate
10:56PM 59.4779 -23.1009 70° East  Level FlightAware Approximate
10:57PM 59.5246 -22.8440 70° East  Level FlightAware Approximate
10:58PM 59.5708 -22.5864 70° East  Level FlightAware Approximate
10:59PM 59.6165 -22.3281 71° East  Level FlightAware Approximate
11:00PM 59.6616 -22.0690 71° East  Level FlightAware Approximate
11:01PM 59.7063 -21.8093 71° East  Level FlightAware Approximate
11:02PM 59.7504 -21.5489 71° East  Level FlightAware Approximate
11:03PM 59.7940 -21.2878 72° East  Level FlightAware Approximate
11:04PM 59.8371 -21.0260 72° East  Level FlightAware Approximate
11:05PM 59.8797 -20.7635 72° East  Level FlightAware Approximate
11:06PM 59.9217 -20.5004 72° East  Level FlightAware Approximate
11:07PM 59.9633 -20.2366 72° East  Level FlightAware Approximate
11:08PM 60.0038 -19.9719 75° East  Level FlightAware Approximate
11:09PM 60.0401 -19.7044 75° East  Level FlightAware Approximate
11:10PM 60.0758 -19.4363 75° East  Level FlightAware Approximate
11:11PM 60.1110 -19.1677 75° East  Level FlightAware Approximate
11:12PM 60.1456 -18.8984 75° East  Level FlightAware Approximate
11:13PM 60.1797 -18.6286 76° East  Level FlightAware Approximate
11:14PM 60.2133 -18.3582 76° East  Level FlightAware Approximate
11:15PM 60.2463 -18.0874 76° East  Level FlightAware Approximate
11:16PM 60.2787 -17.8159 76° East  Level FlightAware Approximate
11:17PM 60.3106 -17.5439 77° East  Level FlightAware Approximate
11:18PM 60.3419 -17.2714 77° East  Level FlightAware Approximate
11:19PM 60.3724 -16.9983 77° East  Level FlightAware Approximate
11:20PM 60.4022 -16.7246 77° East  Level FlightAware Approximate
11:21PM 60.4314 -16.4503 78° East  Level FlightAware Approximate
11:22PM 60.4601 -16.1756 78° East  Level FlightAware Approximate
11:23PM 60.4882 -15.9005 78° East  Level FlightAware Approximate
11:24PM 60.5168 -15.6252 78° East  Level FlightAware Approximate
11:25PM 60.5455 -15.3498 78° East  Level FlightAware Approximate
11:26PM 60.5736 -15.0739 78° East  Level FlightAware Approximate
11:27PM 60.6012 -14.7976 78° East  Level FlightAware Approximate
11:28PM 60.6282 -14.5207 79° East  Level FlightAware Approximate
11:29PM 60.6546 -14.2434 79° East  Level FlightAware Approximate
11:30PM 60.6804 -13.9657 79° East  Level FlightAware Approximate
11:31PM 60.7057 -13.6875 79° East  Level FlightAware Approximate
11:32PM 60.7304 -13.4089 80° East  Level FlightAware Approximate
11:33PM 60.7545 -13.1298 80° East  Level FlightAware Approximate
11:34PM 60.7780 -12.8504 80° East  Level FlightAware Approximate
11:35PM 60.8010 -12.5705 80° East  Level FlightAware Approximate
11:36PM 60.8234 -12.2902 81° East  Level FlightAware Approximate
11:37PM 60.8452 -12.0096 81° East  Level FlightAware Approximate
11:37PM 61.0820 -8.4500 81° East 553 636 33,000  Level FlightAware
11:37PM 61.0910 -8.2490 85° East 554 638 33,000 600 Level FlightAware
11:38PM 61.1020 -8.0190 84° East 560 644 33,800 1,080 Climbing FlightAware
11:39PM 61.1110 -7.8020 85° East 562 647 34,600 1,080 Climbing FlightAware
11:39PM 61.1200 -7.5800 85° East 564 649 35,400 1,080 Climbing FlightAware
11:40PM 61.1300 -7.3350 85° East 567 652 36,200 960 Climbing FlightAware
11:41PM 61.1380 -7.1160 86° East 570 656 36,800 540 Climbing FlightAware
11:42PM 61.1470 -6.8740 85° East 570 656 37,000 120 Climbing FlightAware
11:42PM 61.1540 -6.6590 86° East 568 654 37,000  Level FlightAware
11:43PM 61.1620 -6.4120 86° East 571 657 37,000  Level FlightAware
11:44PM 61.1690 -6.1900 86° East 572 658 37,000  Level FlightAware
11:44PM 61.1760 -5.9700 86° East 573 659 37,000  Level FlightAware
11:45PM 61.1830 -5.7210 87° East 574 661 37,000  Level FlightAware
11:46PM 61.1900 -5.4190 87° East 575 662 37,000  Level FlightAware
11:47PM 61.1960 -5.2010 87° East 574 661 37,000  Level FlightAware
11:47PM 61.2010 -4.9540 87° East 574 661 37,000  Level FlightAware
11:48PM 61.2050 -4.7510 88° East 574 661 37,000  Level FlightAware
11:49PM 61.2120 -4.3750 88° East 575 662 37,000  Level FlightAware
11:51PM 61.2190 -3.8730 88° East 575 662 37,000  Level FlightAware
11:51PM 61.2220 -3.6580 88° East 575 662 37,000  Level FlightAware
11:52PM 61.2240 -3.4750 89° East 574 661 37,000  Level FlightAware
11:53PM 61.2270 -3.1830 89° East 575 662 37,000  Level FlightAware
11:53PM 61.2280 -3.0200 89° East 575 662 37,000  Level FlightAware
11:54PM 61.2290 -2.7420 89° East 576 663 37,000  Level FlightAware
11:55PM 61.2300 -2.5320 89° East 576 663 37,000  Level FlightAware
11:56PM 61.2320 -2.3060 89° East 576 663 37,000  Level FlightAware
11:56PM 61.2310 -2.0240 90° East 576 663 37,000  Level FlightAware
11:57PM 61.2300 -1.7380 90° East 577 664 37,000  Level FlightAware
11:58PM 61.2300 -1.5630 90° East 577 664 37,000  Level FlightAware
11:58PM 61.2300 -1.3740 90° East 577 664 37,000  Level FlightAware
11:59PM 61.2300 -1.1390 90° East 577 664 37,000  Level FlightAware
12:00AM 61.2300 -0.9500 90° East 577 664 37,000  Level FlightAware
12:01AM 61.2300 -0.7620 90° East 577 664 37,000  Level FlightAware
12:01AM 61.2300 -0.5730 90° East 577 664 37,000  Level FlightAware
12:02AM 61.2300 -0.3840 90° East 577 664 37,000  Level FlightAware
12:03AM 61.2300 -0.1490 90° East 577 664 37,000  Level FlightAware
12:03AM 61.1750 0.2620 105° East 37,000  Level FlightAware
12:04AM 61.1460 0.4560 107° East 566 651 37,000  Level FlightAware
12:05AM 61.1070 0.7040 108° East 562 647 37,000  Level FlightAware
12:05AM 61.0720 0.9320 108° East 562 647 37,000  Level FlightAware
12:06AM 61.0510 1.1440 101° East 569 655 37,000  Level FlightAware
12:07AM 61.0410 1.3580 95° East 570 656 37,000  Level FlightAware
12:07AM 61.0330 1.6040 94° East 569 655 37,000  Level FlightAware
12:08AM 61.0250 1.8170 94° East 568 654 37,000  Level FlightAware
12:09AM 61.0150 2.0580 95° East 567 652 37,000  Level FlightAware
12:10AM 61.0060 2.2760 95° East 566 651 37,000  Level FlightAware
12:10AM 60.9980 2.4850 94° East 565 650 37,000  Level FlightAware
12:11AM 60.9910 2.6490 95° East 564 649 37,000  Level FlightAware
12:11AM 60.9800 2.8870 95° East 565 650 37,000  Level FlightAware
12:14AM 60.9725 3.4720 91° East  Level Estimated
12:15AM 60.9678 3.7572 92° East  Level Estimated
12:16AM 60.9627 4.0424 92° East  Level Estimated
12:17AM 60.9568 4.3274 92° East  Level Estimated
12:18AM 60.9504 4.6124 93° East  Level Estimated
12:19AM 60.9434 4.8972 93° East  Level Estimated
12:20AM 60.9358 5.1819 93° East  Level Estimated
12:20AM 60.8310 5.5540 93° East 579 666 37,000  Level FlightAware
12:21AM 60.8150 5.7990 98° East 581 669 37,000  Level FlightAware
12:21AM 60.8030 5.9730 98° East 580 667 37,000  Level FlightAware
12:22AM 60.7830 6.2510 98° East 579 666 37,000  Level FlightAware
12:23AM 60.7660 6.4940 98° East 578 665 37,000  Level FlightAware
12:23AM 60.7500 6.7040 99° East 579 666 37,000  Level FlightAware
12:26AM 60.7262 7.3302 94° East  Level Estimated
12:26AM 60.6790 7.6120 94° East 577 664 37,000  Level FlightAware
12:27AM 60.6610 7.8260 100° East 574 661 37,000  Level FlightAware
12:27AM 60.6430 8.0380 100° East 573 659 37,000  Level FlightAware
12:28AM 60.6230 8.2760 100° East 573 659 37,000  Level FlightAware
12:29AM 60.6040 8.4850 100° East 570 656 37,000  Level FlightAware
12:30AM 60.5830 8.7230 100° East 568 654 37,000  Level FlightAware
12:30AM 60.5640 8.9310 100° East 565 650 37,000  Level FlightAware
12:31AM 60.5420 9.1600 101° East 561 646 37,000  Level FlightAware
12:32AM 60.5230 9.3680 100° East 555 639 37,000  Level FlightAware
12:32AM 60.5000 9.5980 101° East 555 639 37,000  Level FlightAware
12:33AM 60.4800 9.8020 101° East 554 638 37,000  Level FlightAware
12:34AM 60.4600 10.0050 101° East 554 638 37,000  Level FlightAware
12:35AM 60.4370 10.2300 102° East 553 636 37,000  Level FlightAware
12:35AM 60.4160 10.4310 102° East 552 635 37,000  Level FlightAware
12:36AM 60.3920 10.6580 102° East 554 638 37,000  Level FlightAware
12:37AM 60.3700 10.8610 102° East 556 640 37,000  Level FlightAware
12:37AM 60.3460 11.0890 102° East 558 642 37,000  Level FlightAware
12:38AM 60.3230 11.2910 103° East 561 646 37,000  Level FlightAware
12:39AM 60.3000 11.4930 103° East 565 650 37,000  Level FlightAware
12:39AM 60.2740 11.7270 103° East 570 656 37,000  Level FlightAware
12:40AM 60.2500 11.9320 103° East 571 657 37,000  Level FlightAware
12:41AM 60.2250 12.1390 104° East 573 659 37,000  Level FlightAware
12:42AM 60.1980 12.3710 103° East 576 663 37,000  Level FlightAware
12:42AM 60.1760 12.5780 102° East 577 664 37,000  Level FlightAware
12:43AM 60.1620 12.7730 98° East 574 661 37,000  Level FlightAware
12:44AM 60.1450 13.0400 97° East 573 659 37,000  Level FlightAware
12:44AM 60.1290 13.2800 98° East 574 661 37,000  Level FlightAware
12:45AM 60.1090 13.4920 101° East 575 662 37,000  Level FlightAware
12:46AM 60.0850 13.6960 103° East 576 663 37,000  Level FlightAware
12:46AM 60.0590 13.9040 104° East 575 662 37,000  Level FlightAware
12:47AM 60.0290 14.1290 105° East 574 661 37,000  Level FlightAware
12:48AM 60.0020 14.3340 105° East 572 658 37,000  Level FlightAware
12:49AM 59.9700 14.5690 105° East 573 659 37,000  Level FlightAware
12:49AM 59.9430 14.7630 105° East 572 658 37,000  Level FlightAware
12:50AM 59.9130 14.9710 106° East 572 658 37,000  Level FlightAware
12:51AM 59.8820 15.1920 106° East 571 657 37,000  Level FlightAware
12:51AM 59.8530 15.3940 106° East 570 656 37,000  Level FlightAware
12:52AM 59.8190 15.6260 106° East 568 654 37,000  Level FlightAware
12:53AM 59.7890 15.8270 106° East 567 652 37,000  Level FlightAware
12:53AM 59.7590 16.0260 107° East 565 650 37,000  Level FlightAware
12:54AM 59.7260 16.2400 107° East 564 649 37,000  Level FlightAware
12:55AM 59.6960 16.4400 106° East 564 649 37,000  Level FlightAware
12:56AM 59.6600 16.6670 107° East 562 647 37,000  Level FlightAware
12:56AM 59.6300 16.8620 107° East 560 644 37,000  Level FlightAware
12:57AM 59.6010 17.0460 107° East 561 646 37,000  Level FlightAware
12:58AM 59.5640 17.2710 108° East 559 643 37,000  Level FlightAware
12:58AM 59.5320 17.4660 108° East 561 646 37,000  Level FlightAware
12:59AM 59.4970 17.6800 108° East 559 643 37,000  Level FlightAware
01:00AM 59.4650 17.8710 108° East 558 642 37,000  Level FlightAware
01:00AM 59.4330 18.0630 108° East 556 640 37,000  Level FlightAware
01:01AM 59.3950 18.2840 109° East 554 638 37,000  Level FlightAware
01:02AM 59.3620 18.4740 109° East 554 638 37,000  Level FlightAware
01:03AM 59.3260 18.6790 109° East 554 638 37,000  Level FlightAware
01:03AM 59.2930 18.8700 109° East 553 636 37,000  Level FlightAware
01:04AM 59.2600 19.0560 109° East 554 638 37,000  Level FlightAware
01:05AM 59.2210 19.2720 109° East 552 635 37,000  Level FlightAware
01:05AM 59.1860 19.4620 110° East 552 635 37,000  Level FlightAware
01:06AM 59.1490 19.6650 109° East 551 634 37,000  Level FlightAware
01:07AM 59.1140 19.8500 110° East 549 632 37,000  Level FlightAware
01:07AM 59.0790 20.0390 110° East 551 634 37,000  Level FlightAware
01:08AM 59.0390 20.2490 110° East 551 634 37,000  Level FlightAware
01:09AM 59.0040 20.4340 110° East 550 633 37,000  Level FlightAware
01:09AM 58.9680 20.6180 111° Southeast 551 634 37,000  Level FlightAware
01:10AM 58.9290 20.8190 111° Southeast 551 634 37,000  Level FlightAware
01:11AM 58.8940 21.0370 107° East 553 636 37,000  Level FlightAware
01:12AM 58.8680 21.2300 105° East 553 636 37,000  Level FlightAware
01:12AM 58.8430 21.4180 104° East 553 636 37,000  Level FlightAware
01:13AM 58.8140 21.6310 105° East 554 638 37,000  Level FlightAware
01:14AM 58.7890 21.8140 105° East 555 639 37,000  Level FlightAware
01:14AM 58.7610 22.0090 105° East 555 639 37,000  Level FlightAware
01:15AM 58.7300 22.2270 105° East 556 640 37,000  Level FlightAware
01:16AM 58.7020 22.4210 105° East 555 639 37,000  Level FlightAware
01:17AM 58.6710 22.6260 106° East 555 639 37,000  Level FlightAware
01:17AM 58.6430 22.8180 106° East 556 640 37,000  Level FlightAware
01:18AM 58.6150 23.0050 106° East 556 640 37,000  Level FlightAware
01:19AM 58.5830 23.2160 106° East 556 640 37,000  Level FlightAware
01:19AM 58.5540 23.4030 106° East 556 640 37,000  Level FlightAware
01:20AM 58.5240 23.5940 107° East 557 641 37,000  Level FlightAware
01:21AM 58.4900 23.8110 107° East 559 643 37,000  Level FlightAware
01:21AM 58.4600 23.9990 107° East 562 647 37,000  Level FlightAware
01:22AM 58.4260 24.2090 107° East 563 648 37,000  Level FlightAware
01:23AM 58.3960 24.3950 107° East 563 648 37,000  Level FlightAware
01:23AM 58.3650 24.5830 107° East 562 647 37,000  Level FlightAware
01:24AM 58.3280 24.8040 108° East 564 649 37,000  Level FlightAware
01:25AM 58.2980 24.9830 108° East 562 647 37,000  Level FlightAware
01:26AM 58.2670 25.1670 108° East 561 646 37,000  Level FlightAware
01:26AM 58.2310 25.3780 108° East 557 641 37,000  Level FlightAware
01:27AM 58.1980 25.5640 109° East 555 639 37,000  Level FlightAware
01:28AM 58.1620 25.7710 108° East 554 638 37,000  Level FlightAware
01:28AM 58.1290 25.9550 109° East 554 638 37,000  Level FlightAware
01:29AM 58.0930 26.1570 109° East 552 635 37,000  Level FlightAware
01:30AM 58.0600 26.3410 109° East 553 636 37,000  Level FlightAware
01:30AM 58.0260 26.5240 109° East 552 635 37,000  Level FlightAware
01:31AM 57.9890 26.7260 109° East 553 636 37,000  Level FlightAware
01:32AM 57.9550 26.9060 110° East 552 635 37,000  Level FlightAware
01:33AM 57.9160 27.1120 110° East 552 635 37,000  Level FlightAware
01:33AM 57.8770 27.3150 110° East 551 634 37,000  Level FlightAware
01:34AM 57.8420 27.4930 110° East 551 634 37,000  Level FlightAware
01:35AM 57.7920 27.6590 119° Southeast 549 632 37,000  Level FlightAware
01:35AM 57.7340 27.8420 121° Southeast 549 632 37,000  Level FlightAware
01:36AM 57.6820 28.0000 122° Southeast 549 632 37,000  Level FlightAware
01:37AM 57.6220 28.1810 122° Southeast 548 631 37,000  Level FlightAware
01:38AM 57.5670 28.3420 122° Southeast 545 627 37,000  Level FlightAware
01:38AM 57.5070 28.5200 122° Southeast 545 627 37,000  Level FlightAware
01:39AM 57.4530 28.6760 123° Southeast 546 628 37,000  Level FlightAware
01:40AM 57.3980 28.8340 123° Southeast 547 629 37,000  Level FlightAware
01:40AM 57.3380 29.0050 123° Southeast 547 629 37,000  Level FlightAware
01:41AM 57.2810 29.1690 123° Southeast 546 628 37,000  Level FlightAware
01:42AM 57.2310 29.3110 123° Southeast 547 629 37,000  Level FlightAware
01:42AM 57.1690 29.4860 123° Southeast 546 628 37,000  Level FlightAware
01:43AM 57.1090 29.6520 124° Southeast 546 628 37,000  Level FlightAware
01:44AM 57.0630 29.7840 123° Southeast 547 629 37,000  Level FlightAware
01:44AM 57.0160 29.9170 123° Southeast 547 629 37,000  Level FlightAware
01:45AM 56.9690 30.0490 123° Southeast 547 629 37,000  Level FlightAware
01:46AM 56.8720 30.3040 125° Southeast 546 628 37,000  Level FlightAware
01:47AM 56.8160 30.4570 124° Southeast 546 628 37,000  Level FlightAware
01:47AM 56.7540 30.6240 124° Southeast 547 629 37,000  Level FlightAware
01:48AM 56.7030 30.7600 124° Southeast 546 628 37,000  Level FlightAware
01:49AM 56.6550 30.8890 124° Southeast 546 628 37,000  Level FlightAware
01:49AM 56.6070 31.0190 124° Southeast 546 628 37,000  Level FlightAware
01:50AM 56.5590 31.1480 124° Southeast 546 628 37,000  Level FlightAware
01:51AM 56.5110 31.2770 124° Southeast 546 628 37,000  Level FlightAware
01:52AM 56.4510 31.4380 124° Southeast 546 628 37,000  Level FlightAware
01:52AM 56.3310 31.7000 129° Southeast 543 625 37,000  Level FlightAware
01:53AM 56.2760 31.8500 123° Southeast 543 625 37,000  Level FlightAware
01:54AM 56.2140 32.0190 123° Southeast 541 623 37,000  Level FlightAware
01:54AM 56.1520 32.1880 123° Southeast 540 621 37,000  Level FlightAware
01:55AM 56.1020 32.3150 125° Southeast 540 621 37,000  Level FlightAware
01:56AM 56.0470 32.4530 125° Southeast 538 619 37,000  Level FlightAware
01:56AM 55.9720 32.6420 125° Southeast 538 619 37,000  Level FlightAware
01:57AM 55.9160 32.7850 125° Southeast 536 617 37,000  Level FlightAware
01:58AM 55.8570 32.9550 122° Southeast 536 617 37,000  Level FlightAware
01:59AM 55.8290 33.1250 106° East 536 617 37,000  Level FlightAware
01:59AM 55.8060 33.2940 104° East 535 616 37,000 -180 Level FlightAware
02:00AM 55.7800 33.4820 104° East 539 620 36,800 -540 Descending FlightAware
02:01AM 55.7560 33.6580 104° East 544 626 36,300 -1,380 Descending FlightAware
02:01AM 55.7270 33.8620 104° East 554 638 34,900 -1,980 Descending FlightAware
02:02AM 55.7020 34.0380 104° East 550 633 33,500 -2,220 Descending FlightAware
02:03AM 55.6760 34.2130 105° East 555 639 32,000 -2,220 Descending FlightAware
02:03AM 55.6480 34.4080 104° East 544 626 30,400 -1,980 Descending FlightAware
02:04AM 55.6220 34.5780 105° East 532 612 29,200 -1,080 Descending FlightAware
02:05AM 55.5980 34.7390 105° East 515 593 29,000 -180 Descending FlightAware
02:06AM 55.5700 34.9260 105° East 517 595 29,000  Level FlightAware
02:06AM 55.5690 35.0950 91° East 511 588 29,000 -480 Level FlightAware
02:07AM 55.5960 35.2680 74° East 497 572 28,400 -1,320 Descending FlightAware
02:08AM 55.6220 35.4200 73° East 484 557 27,200 -1,920 Descending FlightAware
02:08AM 55.6480 35.5710 73° East 473 544 25,900 -1,920 Descending FlightAware
02:09AM 55.6760 35.7390 73° East 463 533 24,500 -1,320 Descending FlightAware
02:10AM 55.6980 35.8770 74° East 433 498 24,100 -1,080 Descending FlightAware
02:10AM 55.7190 36.0090 74° East 420 483 23,100 -1,680 Descending FlightAware
02:11AM 55.7440 36.1580 73° East 412 474 21,800 -1,740 Descending FlightAware
02:12AM 55.7650 36.2900 74° East 406 467 20,700 -1,740 Descending FlightAware
02:13AM 55.7870 36.4310 74° East 400 460 19,400 -1,680 Descending FlightAware
02:13AM 55.8070 36.5570 74° East 389 448 18,400 -1,440 Descending FlightAware
02:14AM 55.8280 36.6930 75° East 374 430 17,400 -1,500 Descending FlightAware
02:15AM 55.8470 36.8110 74° East 374 430 16,300 -1,380 Descending FlightAware
02:15AM 55.8660 36.9260 74° East 373 429 15,600 -1,200 Descending FlightAware
02:16AM 55.8950 37.0580 69° East 378 435 14,600 -1,020 Descending FlightAware
02:17AM 55.9200 37.1660 68° East 356 410 14,200 -1,200 Descending FlightAware
02:17AM 55.9450 37.2750 68° East 347 399 13,000 -1,560 Descending FlightAware
02:18AM 55.9580 37.3560 74° East 329 379 12,400 -1,380 Descending FlightAware
02:19AM 55.9500 37.4570 98° East 320 368 11,400 -1,200 Descending FlightAware
02:19AM 55.9360 37.5720 102° East 299 344 10,700 -960 Descending FlightAware
02:20AM 55.9250 37.6670 102° East 297 342 10,100 -720 Descending FlightAware
02:20AM 55.9150 37.7350 105° East 281 323 9,900 -840 Descending FlightAware
02:21AM 55.9060 37.7650 118° Southeast 264 304 9,500 -1,680 Descending FlightAware
02:21AM 55.8870 37.8050 130° Southeast 252 290 8,800 -1,680 Descending FlightAware
02:21AM 55.8760 37.8310 127° Southeast 249 287 8,400 -1,440 Descending FlightAware
02:22AM 55.8640 37.8510 137° Southeast 240 276 8,100 -1,200 Descending FlightAware
02:22AM 55.8520 37.8620 153° Southeast 227 261 7,800 -1,080 Descending FlightAware
02:22AM 55.8230 37.8650 177° South 220 253 7,400 -1,020 Descending FlightAware
02:22AM 55.8200 37.8660 169° South 219 252 7,300 -1,140 Descending FlightAware
02:25AM 55.5250 37.8950 177° South  Level Estimated
02:26AM 55.4088 37.9063 177° South  Level Estimated
02:26AM 55.6300 37.8320 177° South 163 188 3,500  Level FlightAware
02:26AM 55.6230 37.8150 234° Southwest 168 193 3,000 -1,380 Descending FlightAware
02:27AM 55.6090 37.7830 232° Southwest 168 193 2,500 -660 Descending FlightAware
02:27AM 55.5970 37.7570 231° Southwest 149 171 2,400 -120 Descending FlightAware
02:27AM 55.5820 37.7370 217° Southwest 150 173 2,400  Level FlightAware
02:28AM 55.5710 37.7420 166° South 157 181 2,400  Level FlightAware
02:28AM 55.5550 37.7550 155° Southeast 156 180 2,400  Level FlightAware
02:29AM 55.5350 37.7730 153° Southeast 164 189 2,400  Level FlightAware
02:29AM 55.5200 37.7920 144° Southeast 167 192 2,400  Level FlightAware
02:30AM 55.5030 37.8120 146° Southeast 146 168 2,400 -120 Level FlightAware
02:30AM 55.4890 37.8290 145° Southeast 128 147 2,300 -420 Descending FlightAware
02:30AM 55.4790 37.8410 146° Southeast 119 137 2,100 -720 Descending FlightAware
02:31AM 55.4680 37.8540 146° Southeast 123 142 1,800 -660 Descending FlightAware
02:31AM 55.4540 37.8710 145° Southeast 119 137 1,500 -660 Descending FlightAware
02:32AM 55.4440 37.8830 146° Southeast 121 139 1,200 -720 Descending FlightAware
02:32AM 55.4310 37.8990 145° Southeast 129 148 900 -480 Descending FlightAware
02:33AM 55.4170 37.9150 147° Southeast 129 148 800 -240 Descending FlightAware
02:35AM 55.4088 37.9063 66° East  Level Estimated
02:36AM 55.4088 37.9063 66° East  Level Estimated
02:37AM 55.4088 37.9063 66° East  Level Estimated
02:38AM 55.4088 37.9063 66° East  Level Estimated
02:39AM 55.4088 37.9063 66° East  Level Estimated
02:40AM 55.4088 37.9063 66° East  Level Estimated
02:41AM 55.4088 37.9063 66° East  Level Estimated
02:42AM 55.4088 37.9063 66° East  Level Estimated
02:43AM 55.4088 37.9063 66° East  Level Estimated
02:44AM 55.4088 37.9063 66° East  Level Estimated
02:45AM 55.4088 37.9063 66° East  Level Estimated
02:46AM 55.4088 37.9063 66° East  Level Estimated
02:47AM 55.4088 37.9063 66° East  Level Estimated
02:48AM 55.4088 37.9063 66° East  Level Estimated
02:49AM 55.4088 37.9063 66° East  Level Estimated
02:50AM 55.4088 37.9063 66° East  Level Estimated
02:51AM 55.4088 37.9063 66° East  Level Estimated
02:52AM 55.4088 37.9063 66° East  Level Estimated
02:53AM 55.4088 37.9063 66° East  Level Estimated
02:54AM 55.4088 37.9063 66° East  Level Estimated
02:55AM 55.4088 37.9063 66° East  Level Estimated
02:56AM 55.4088 37.9063 66° East  Level Estimated
02:57AM 55.4088 37.9063 66° East  Level Estimated
02:58AM 55.4088 37.9063 66° East  Level Estimated
02:59AM 55.4088 37.9063 66° East  Level Estimated
03:00AM 55.4088 37.9063 66° East  Level Estimated
03:01AM 55.4088 37.9063 66° East  Level Estimated
03:02AM 55.4088 37.9063 66° East  Level Estimated
03:03AM 55.4088 37.9063 66° East  Level Estimated
03:04AM 55.4088 37.9063 66° East  Level Estimated
03:05AM 55.4088 37.9063 66° East  Level Estimated
03:06AM 55.4088 37.9063 66° East  Level Estimated
03:07AM 55.4088 37.9063 66° East  Level Estimated
03:08AM 55.4088 37.9063 66° East  Level Estimated
03:09AM 55.4088 37.9063 66° East  Level Estimated
03:10AM 55.4088 37.9063 66° East  Level Estimated
03:11AM 55.4088 37.9063 66° East  Level Estimated
03:12AM 55.4088 37.9063 66° East  Level Estimated
03:13AM 55.4088 37.9063 66° East  Level Estimated
03:14AM 55.4088 37.9063 66° East  Level Estimated
03:15AM 55.4088 37.9063 66° East  Level Estimated
03:16AM 55.4088 37.9063 66° East  Level Estimated
03:17AM 55.4088 37.9063 66° East  Level Estimated
03:18AM 55.4088 37.9063 66° East  Level Estimated
03:19AM 55.4088 37.9063 66° East  Level Estimated
03:20AM 55.4088 37.9063 66° East  Level Estimated
03:21AM 55.4088 37.9063 66° East  Level Estimated
03:22AM 55.4088 37.9063 66° East  Level Estimated
03:23AM 55.4088 37.9063 66° East  Level Estimated
03:24AM 55.4088 37.9063 66° East  Level Estimated
03:25AM 55.4088 37.9063 66° East  Level Estimated
03:26AM 55.4088 37.9063 66° East  Level Estimated
03:27AM 55.4088 37.9063 66° East  Level Estimated
03:28AM 55.4088 37.9063 66° East  Level Estimated
03:29AM 55.4088 37.9063 66° East  Level Estimated
03:30AM 55.4088 37.9063 66° East  Level Estimated
03:31AM 55.4088 37.9063 66° East  Level Estimated
03:32AM 55.4088 37.9063 66° East  Level Estimated
03:33AM 55.4088 37.9063 66° East  Level Estimated
03:34AM 55.4088 37.9063 66° East  Level Estimated
03:35AM 55.4088 37.9063 66° East  Level Estimated
03:36AM 55.4088 37.9063 66° East  Level Estimated
03:37AM 55.4088 37.9063 66° East  Level Estimated
03:38AM 55.4088 37.9063 66° East  Level Estimated
03:39AM 55.4088 37.9063 66° East  Level Estimated
03:40AM 55.4088 37.9063 66° East  Level Estimated
03:41AM 55.4088 37.9063 66° East  Level Estimated
03:42AM 55.4088 37.9063 66° East  Level Estimated
03:43AM 55.4088 37.9063 66° East  Level Estimated
03:44AM 55.4088 37.9063 66° East  Level Estimated
03:45AM 55.4088 37.9063 66° East  Level Estimated
03:46AM 55.4088 37.9063 66° East  Level Estimated
03:47AM 55.4088 37.9063 66° East  Level Estimated
03:48AM 55.4088 37.9063 66° East  Level Estimated
03:49AM 55.4088 37.9063 66° East  Level Estimated
03:50AM 55.4088 37.9063 66° East  Level Estimated
03:51AM 55.4088 37.9063 66° East  Level Estimated
03:52AM 55.4088 37.9063 66° East  Level Estimated